EDDS

Stuttgart Airport

Stuttgart, Germany
METAR EDDS 171150Z 22004KT 160V270 9999 SCT035 05/02 Q1021 NOSIG
Observed Flight Rules
Dec-17 @ 11:50 UTC (24 minutes ago) Visual Flight Rules
Wind Visibility Clouds
220° at 4 knots 10,000+ meters
  • Scattered at 3,500' AGL
Temperatures Readings
Current 5°C / 41°F
Dewpoint 2°C / 36°F
Humidity 81%
Altimeter 30.15" Hg
Pressure 1021 hPa
Elevation 419
METAR EDDS 171150Z 22004KT 160V270 9999 SCT035 05/02 Q1021 NOSIG
Observed Flight Rules
Dec-17 @ 11:50 UTC
(24 minutes ago)
VFR
Wind Visibility
220° at 4 knots 10,000+ meters
Clouds
  • Scattered at 3,500' AGL
Temperature Dewpoint
5°C / 41°F 2°C / 36°F
Humidity Altimeter Pressure
81% 30.15" Hg 1021 hPa